Latest Weather Observations for Gold Coast Seaway

IDQ60801

Issued at 1:02 pm EST Tuesday 26 May 2015 (issued every 30 minutes, with the page automatically refreshed every 10 minutes)

About weather observations | Map of weather stations | Latest weather observations for QLD | Other Formats
Station Details ID: 040764 Name: GOLD COAST SEAWAY Lat: -27.94 Lon: 153.43 Height: 2.98 m
Data from the previous 72 hours. | See also: Recent months at Gold Coast Seaway
Date/Time
EST
Temp
°C
App
Temp
°C
Dew
Point
Rel
Hum
%
Delta-T
°C
Wind Press
QNH
hPa
Press
MSL
hPa
Rain
since 9 am
mm
Dir
 
Spd
km/h
Gust
km/h
Spd
kts
Gust
kts
26/01:00pm 23.1 21.4 14.7 59 4.9 SE 17 22 9 12 1025.3 1025.3 0.0
26/12:30pm 22.9 21.1 14.5 59 4.9 SSE 17 22 9 12 1025.9 1025.9 0.0
26/12:00pm 23.0 20.8 14.8 60 4.8 SSE 20 26 11 14 1026.6 1026.6 0.0
26/11:30am 22.7 20.6 14.8 61 4.7 SSE 19 24 10 13 1027.0 1027.0 0.0
26/11:00am 22.6 21.6 18.8 79 2.4 SSE 22 28 12 15 1027.4 1027.4 0.0
26/10:30am 22.0 20.5 18.6 81 2.1 SSE 24 28 13 15 1027.7 1027.7 0.0
26/10:00am 21.0 20.7 19.6 92 0.9 SSE 20 26 11 14 1027.5 1027.5 0.0
26/09:30am 20.1 20.7 18.6 91 0.9 S 13 19 7 10 1028.2 1028.2 0.0
26/09:00am 20.3 20.5 18.6 90 1.1 SSE 15 20 8 11 1028.2 1028.2 0.0
26/08:30am 18.8 20.2 18.6 99 0.1 SSW 9 13 5 7 1028.1 1028.1 0.0
26/08:00am 17.4 18.5 17.2 99 0.1 SW 7 11 4 6 1028.2 1028.2 0.0
26/07:30am 16.1 16.0 15.9 99 0.1 SW 11 15 6 8 1028.2 1028.2 0.0
26/07:00am 14.9 14.4 14.9 100 0.0 SW 11 15 6 8 1028.1 1028.1 0.0
26/06:30am 14.6 14.0 14.6 100 0.0 SSW 11 13 6 7 1027.9 1027.9 0.0
26/06:00am 14.7 14.1 14.7 100 0.0 SW 11 15 6 8 1027.9 1027.9 0.0
26/05:30am 14.7 14.1 14.7 100 0.0 SW 11 17 6 9 1027.7 1027.7 0.0
26/05:00am 14.7 14.1 14.7 100 0.0 SW 11 15 6 8 1027.2 1027.2 0.0
26/04:30am 14.9 14.3 14.7 99 0.1 SW 11 15 6 8 1027.1 1027.1 0.0
26/04:00am 15.0 14.8 14.8 99 0.1 SW 9 13 5 7 1027.4 1027.4 0.0
26/03:30am 14.9 14.3 14.7 99 0.1 SW 11 13 6 7 1027.5 1027.5 0.0
26/03:00am 15.1 14.6 14.9 99 0.1 SW 11 13 6 7 1027.8 1027.8 0.0
26/02:30am 15.6 15.1 14.8 95 0.5 SW 11 15 6 8 1027.9 1027.9 0.0
26/02:00am 15.7 15.5 14.6 93 0.6 S 9 13 5 7 1027.7 1027.7 0.0
26/01:30am 15.7 17.2 14.6 93 0.6 CALM 0 0 0 0 1027.6 1027.6 0.0
26/01:00am 16.1 17.0 15.0 93 0.6 SW 4 7 2 4 1028.3 1028.3 0.0
26/12:30am 16.0 16.0 15.2 95 0.5 SW 9 13 5 7 1028.4 1028.4 0.0
26/12:00am 16.0 16.3 14.9 93 0.6 SSW 7 11 4 6 1028.4 1028.4 0.0
 
Date/Time
EST
Temp
°C
App
Temp
°C
Dew
Point
Rel
Hum
%
Delta-T
°C
Wind Press
QNH
hPa
Press
MSL
hPa
Rain
since 9 am
mm
Dir
 
Spd
km/h
Gust
km/h
Spd
kts
Gust
kts
25/11:30pm 16.0 16.3 15.0 94 0.6 SSW 7 9 4 5 1028.6 1028.6 0.0
25/11:00pm 15.8 15.8 15.2 96 0.3 SW 9 11 5 6 1028.9 1028.9 0.0
25/10:30pm 15.2 13.6 12.9 86 1.3 SSW 13 13 7 7 1029.1 1029.1 0.0
25/10:00pm 15.8 14.9 12.7 82 1.7 SSW 9 13 5 7 1029.2 1029.2 0.0
25/09:30pm 16.3 14.6 12.5 78 2.1 SSW 13 19 7 10 1029.3 1029.3 0.0
25/09:00pm 16.9 15.7 12.8 77 2.3 SSW 11 17 6 9 1029.4 1029.4 0.0
25/08:30pm 16.6 15.5 13.1 80 2.0 SSW 11 15 6 8 1029.6 1029.6 0.0
25/08:00pm 16.3 14.8 13.0 81 1.8 SSW 13 15 7 8 1029.3 1029.3 0.0
25/07:30pm 16.5 14.9 12.7 78 2.1 S 13 17 7 9 1029.0 1029.0 0.0
25/07:00pm 16.8 15.1 12.3 75 2.5 S 13 19 7 10 1028.7 1028.7 0.0
25/06:30pm 17.4 15.8 12.7 74 2.6 SSW 13 17 7 9 1028.9 1028.9 0.0
25/06:00pm 18.0 15.1 12.2 69 3.2 S 19 24 10 13 1028.5 1028.5 0.0
25/05:30pm 18.2 15.4 12.6 70 3.1 S 19 28 10 15 1028.3 1028.3 0.0
25/05:00pm 18.9 15.4 12.2 65 3.7 S 22 30 12 16 1028.4 1028.4 0.0
25/04:30pm 20.2 15.7 12.7 62 4.2 SSE 28 35 15 19 1028.5 1028.5 0.0
25/04:00pm 20.7 15.8 12.4 59 4.6 SSE 30 35 16 19 1027.9 1027.9 0.0
25/03:30pm 21.2 16.7 12.6 58 4.9 SSE 28 35 15 19 1027.9 1027.9 0.0
25/03:00pm 21.1 16.2 12.5 58 4.8 SSE 30 35 16 19 1027.9 1027.9 0.0
25/02:30pm 22.2 18.3 14.3 61 4.6 SE 28 35 15 19 1027.8 1027.8 0.0
25/02:00pm 21.4 17.6 13.6 61 4.5 SE 26 32 14 17 1028.0 1028.0 0.0
25/01:30pm 21.8 18.2 12.9 57 5.1 SE 24 32 13 17 1028.4 1028.4 0.0
25/01:00pm 22.9 18.7 12.5 52 5.9 SE 26 32 14 17 1028.4 1028.4 0.0
25/12:30pm 23.3 19.3 12.9 52 6.0 SE 26 32 14 17 1029.1 1029.1 0.0
25/12:00pm 23.4 20.1 14.1 56 5.4 SSE 24 30 13 16 1029.3 1029.3 0.0
25/11:30am 22.8 18.9 13.3 55 5.5 SSE 26 32 14 17 1029.9 1029.9 0.0
25/11:00am 22.7 19.9 16.3 67 3.9 SSE 26 32 14 17 1030.3 1030.3 0.0
25/10:30am 22.4 19.5 17.1 72 3.3 SSE 28 33 15 18 1030.5 1030.5 0.0
25/10:00am 22.0 20.0 18.2 79 2.4 SSE 26 32 14 17 1030.7 1030.7 0.0
25/09:30am 21.1 19.9 18.3 84 1.7 SSE 22 28 12 15 1030.6 1030.6 0.0
25/09:00am 20.5 19.0 16.7 79 2.3 S 20 26 11 14 1030.5 1030.5 0.0
25/08:30am 19.2 18.2 16.6 85 1.6 S 17 20 9 11 1030.1 1030.1 0.0
25/08:00am 17.9 17.3 15.7 87 1.3 S 13 17 7 9 1029.9 1029.9 0.0
25/07:30am 16.4 15.3 14.2 87 1.3 S 13 15 7 8 1029.8 1029.8 0.0
25/07:00am 15.6 13.8 13.3 86 1.3 SSW 15 19 8 10 1030.1 1030.1 0.0
25/06:30am 14.7 13.8 12.6 87 1.1 SSW 9 13 5 7 1029.8 1029.8 0.0
25/06:00am 15.2 15.2 15.2 100 0.0 SSW 9 15 5 8 1029.7 1029.7 0.0
25/05:30am 15.5 14.8 15.5 100 0.0 SSW 13 19 7 10 1029.4 1029.4 0.0
25/05:00am 15.3 14.9 15.3 100 0.0 SSW 11 15 6 8 1029.2 1029.2 0.0
25/04:30am 15.5 15.2 15.5 100 0.0 SSW 11 13 6 7 1029.0 1029.0 0.0
25/04:00am 15.5 14.5 15.5 100 0.0 S 15 19 8 10 1028.7 1028.7 0.0
25/03:30am 16.1 15.6 15.9 99 0.1 SSW 13 17 7 9 1029.2 1029.2 0.0
25/03:00am 15.8 14.1 14.7 93 0.6 S 17 24 9 13 1029.1 1029.1 0.0
25/02:30am 16.1 15.1 14.6 91 0.9 SSW 13 17 7 9 1029.2 1029.2 0.0
25/02:00am 16.6 14.9 14.8 89 1.0 SSW 17 28 9 15 1029.1 1029.1 0.0
25/01:30am 16.6 14.5 14.6 88 1.1 S 19 28 10 15 1029.1 1029.1 0.0
25/01:00am 16.4 14.9 14.2 87 1.2 SSW 15 20 8 11 1029.3 1029.3 0.0
25/12:30am 16.4 15.4 13.5 83 1.6 SSW 11 19 6 10 1029.4 1029.4 0.0
25/12:00am 16.3 14.3 12.7 79 2.0 S 15 19 8 10 1029.2 1029.2 0.0
 
Date/Time
EST
Temp
°C
App
Temp
°C
Dew
Point
Rel
Hum
%
Delta-T
°C
Wind Press
QNH
hPa
Press
MSL
hPa
Rain
since 9 am
mm
Dir
 
Spd
km/h
Gust
km/h
Spd
kts
Gust
kts
24/11:30pm 16.4 14.7 12.6 78 2.1 S 13 17 7 9 1029.6 1029.6 0.0
24/11:00pm 16.4 15.1 12.6 78 2.1 SSW 11 15 6 8 1030.0 1030.0 0.0
24/10:30pm 16.8 15.6 12.7 77 2.3 SSW 11 17 6 9 1030.0 1030.0 0.0
24/10:00pm 17.0 14.6 12.5 75 2.5 S 17 22 9 12 1029.8 1029.8 0.0
24/09:30pm 17.2 15.2 12.7 75 2.5 SSW 15 20 8 11 1029.7 1029.7 0.0
24/09:00pm 17.4 15.4 12.7 74 2.6 SSW 15 20 8 11 1029.7 1029.7 0.0
24/08:30pm 17.4 14.6 12.5 73 2.7 S 19 26 10 14 1029.8 1029.8 0.0
24/08:00pm 17.4 15.7 12.5 73 2.7 SSW 13 20 7 11 1029.6 1029.6 0.0
24/07:30pm 17.5 15.3 12.2 71 2.9 S 15 20 8 11 1029.2 1029.2 0.0
24/07:00pm 18.0 15.6 12.5 70 3.0 S 17 26 9 14 1029.0 1029.0 0.0
24/06:30pm 18.1 14.2 12.1 68 3.3 S 24 33 13 18 1029.0 1029.0 0.0
24/06:00pm 18.4 15.0 12.4 68 3.3 S 22 33 12 18 1028.9 1028.9 0.0
24/05:30pm 18.6 14.1 12.6 68 3.4 S 28 35 15 19 1028.7 1028.7 0.0
24/05:00pm 19.2 14.6 12.2 64 3.9 S 28 39 15 21 1028.1 1028.1 0.0
24/04:30pm 19.7 14.3 12.9 65 3.8 SSE 33 41 18 22 1028.0 1028.0 0.0
24/04:00pm 20.4 14.6 12.6 61 4.4 SSE 35 43 19 23 1027.5 1027.5 0.0
24/03:30pm 21.0 15.2 12.7 59 4.7 SSE 35 43 19 23 1027.2 1027.2 0.0
24/03:00pm 21.9 15.7 12.7 56 5.2 SSE 37 43 20 23 1027.2 1027.2 0.0
24/02:30pm 22.5 17.1 12.7 54 5.6 SSE 33 41 18 22 1027.1 1027.1 0.0
24/02:00pm 22.5 17.4 13.0 55 5.4 SSE 32 39 17 21 1027.0 1027.0 0.0
24/01:30pm 22.3 16.6 13.1 56 5.3 SSE 35 41 19 22 1027.0 1027.0 0.0
24/01:00pm 22.5 16.9 13.3 56 5.3 SSE 35 41 19 22 1026.9 1026.9 0.0
24/12:30pm 22.6 17.3 13.1 55 5.5 SSE 33 46 18 25 1027.0 1027.0 0.0
24/12:00pm 22.7 18.2 13.7 56 5.2 SSE 30 35 16 19 1027.5 1027.5 0.0
24/11:30am 21.9 16.3 13.3 58 4.9 SSE 35 43 19 23 1027.8 1027.8 0.0
24/11:00am 21.8 16.1 12.9 57 5.0 SSE 35 46 19 25 1028.0 1028.0 0.0
24/10:30am 21.4 15.7 13.1 59 4.7 S 35 43 19 23 1028.1 1028.1 0.0
24/10:00am 21.3 15.8 11.9 55 5.2 S 32 41 17 22 1028.3 1028.3 0.0
24/09:30am 21.0 15.6 12.2 57 4.9 S 32 39 17 21 1028.5 1028.5 0.0
24/09:00am 19.8 16.2 11.8 60 4.4 S 22 32 12 17 1028.3 1028.3 0.0
24/08:30am 18.5 16.8 12.5 68 3.3 SSW 13 19 7 10 1028.1 1028.1 0.0
24/08:00am 17.6 16.6 12.3 71 2.9 SW 9 13 5 7 1028.5 1028.5 0.0
24/07:30am 16.7 15.8 12.5 76 2.3 SW 9 13 5 7 1027.8 1027.8 0.0
24/07:00am 15.6 14.1 12.0 79 1.9 SSW 11 17 6 9 1027.0 1027.0 0.0
24/06:30am 15.5 13.2 11.9 79 2.0 S 15 20 8 11 1026.7 1026.7 0.0
24/06:00am 15.4 12.3 11.6 78 2.0 S 19 26 10 14 1026.5 1026.5 0.0
24/05:30am 15.6 12.6 11.8 78 2.1 S 19 26 10 14 1026.1 1026.1 0.0
24/05:00am 15.8 13.2 12.0 78 2.1 SSW 17 26 9 14 1025.9 1025.9 0.0
24/04:30am 15.3 13.4 11.9 80 1.8 SSW 13 17 7 9 1025.6 1025.6 0.0
24/04:00am 15.7 13.8 11.9 78 2.1 SSW 13 19 7 10 1025.6 1025.6 0.0
24/03:30am 15.9 14.1 12.1 78 2.1 SSW 13 20 7 11 1025.5 1025.5 0.0
24/03:00am 16.2 14.5 12.4 78 2.1 SSW 13 20 7 11 1025.5 1025.5 0.0
24/02:30am 16.6 14.2 12.6 77 2.2 SSW 17 24 9 13 1025.6 1025.6 0.0
24/02:00am 16.7 13.8 12.8 78 2.2 S 20 33 11 18 1025.4 1025.4 0.0
24/01:30am 16.7 13.4 12.7 77 2.2 S 22 32 12 17 1025.7 1025.7 0.0
24/01:00am 16.8 13.9 12.9 78 2.2 S 20 33 11 18 1025.6 1025.6 0.0
24/12:30am 16.4 13.6 12.6 78 2.1 S 19 32 10 17 1025.5 1025.5 0.0
24/12:00am 16.2 13.3 12.2 77 2.2 S 19 33 10 18 1025.6 1025.6 0.0
 
Date/Time
EST
Temp
°C
App
Temp
°C
Dew
Point
Rel
Hum
%
Delta-T
°C
Wind Press
QNH
hPa
Press
MSL
hPa
Rain
since 9 am
mm
Dir
 
Spd
km/h
Gust
km/h
Spd
kts
Gust
kts
23/11:30pm 16.5 14.8 12.5 77 2.2 SSW 13 20 7 11 1025.7 1025.7 0.0
23/11:00pm 16.6 14.8 12.2 75 2.4 SSW 13 19 7 10 1025.7 1025.7 0.0
23/10:30pm 17.1 13.1 11.8 71 2.9 S 24 35 13 19 1025.6 1025.6 0.0
23/10:00pm 17.2 14.1 11.7 70 3.0 S 19 26 10 14 1025.7 1025.7 0.0
23/09:30pm 16.6 13.5 11.5 72 2.8 S 19 32 10 17 1025.7 1025.7 0.0
23/09:00pm 16.8 14.5 11.7 72 2.8 SSW 15 24 8 13 1025.6 1025.6 0.0
23/08:30pm 16.6 14.2 11.5 72 2.8 SSW 15 26 8 14 1025.7 1025.7 0.0
23/08:00pm 16.5 14.3 10.8 69 3.0 S 13 20 7 11 1025.6 1025.6 0.0
23/07:30pm 16.6 13.4 10.0 65 3.5 S 17 22 9 12 1025.3 1025.3 0.0
23/07:00pm 17.1 13.3 9.8 62 3.8 S 20 28 11 15 1025.1 1025.1 0.0
23/06:30pm 17.5 12.9 9.7 60 4.1 S 24 32 13 17 1024.8 1024.8 0.0
23/06:00pm 17.8 13.1 9.2 57 4.5 S 24 35 13 19 1024.6 1024.6 0.0
23/05:30pm 18.3 12.0 8.8 54 4.9 S 32 39 17 21 1024.4 1024.4 0.0
23/05:00pm 18.5 13.5 7.9 50 5.4 S 24 37 13 20 1023.9 1023.9 0.0
23/04:30pm 19.4 13.6 7.8 47 5.9 S 28 44 15 24 1023.5 1023.5 0.0
23/04:00pm 20.2 12.5 8.5 47 6.1 S 39 52 21 28 1023.3 1023.3 0.0
23/03:53pm 20.3 13.9 9.5 50 5.7 S 33 52 18 28 1023.2 1023.2 0.0
23/03:30pm 20.8 12.7 10.6 52 5.6 SSE 44 57 24 31 1023.0 1023.0 0.0
23/03:00pm 20.8 14.6 11.4 55 5.2 S 35 48 19 26 1023.0 1023.0 0.0
23/02:30pm 20.9 15.9 11.0 53 5.4 S 28 35 15 19 1023.2 1023.2 0.0
23/02:02pm 20.6 14.4 11.5 56 5.0 S 35 54 19 29 1023.0 1023.0 0.0
23/02:00pm 20.6 13.6 11.2 55 5.2 S 39 54 21 29 1023.0 1023.0 0.0
23/01:30pm 21.3 13.9 11.3 53 5.5 S 41 54 22 29 1022.6 1022.6 0.0

Other Formats:

Comma delimited format used in spreadsheet applications
http://www.bom.gov.au/fwo/IDQ60801/IDQ60801.94580.axf

JavaScript Object Notation format (JSON) in row-major order
http://www.bom.gov.au/fwo/IDQ60801/IDQ60801.94580.json